Time;durP1;ratioP1;P1;durP2;ratioP2;P2;SDS_P1;SDS_P2;PMS_P1;PMS_P2;Temp;Humidity;BMP_temperature;BMP_pressure;BME280_temperature;BME280_humidity;BME280_pressure;Samples;Min_cycle;Max_cycle;Signal;HPM_P1;HPM_P2
2022/03/20 00:01:32;;;;;;;40.47;7.23;;;2.60;99.90;1.60;103327;;;;571962;247;27355;-84
2022/03/20 00:04:03;;;;;;;34.10;8.90;;;2.60;99.90;1.60;103333;;;;577306;247;24074;-84
2022/03/20 00:06:28;;;;;;;35.40;9.40;;;2.60;99.90;1.60;103340;;;;562328;251;24159;-83
2022/03/20 00:08:57;;;;;;;55.53;9.37;;;2.60;99.90;1.60;103329;;;;577741;247;24100;-83
2022/03/20 00:11:27;;;;;;;32.03;9.27;;;2.70;99.90;1.60;103326;;;;581908;247;27345;-83
2022/03/20 00:13:52;;;;;;;28.00;8.90;;;2.70;99.90;1.60;103321;;;;577294;247;24141;-82
2022/03/20 00:16:23;;;;;;;35.80;9.03;;;2.70;99.90;1.70;103318;;;;567175;251;24128;-85
2022/03/20 00:18:52;;;;;;;37.00;10.60;;;2.70;99.90;1.70;103328;;;;571994;247;24161;-85
2022/03/20 00:21:17;;;;;;;27.27;10.43;;;2.70;99.90;1.70;103322;;;;571748;247;24091;-85
2022/03/20 00:23:49;;;;;;;36.63;10.07;;;2.70;99.90;1.70;103325;;;;571873;247;24075;-85
2022/03/20 00:26:13;;;;;;;35.07;10.47;;;2.70;99.90;1.70;103324;;;;561145;251;24130;-86
2022/03/20 00:28:42;;;;;;;32.97;10.00;;;2.80;99.90;1.70;103320;;;;580431;247;24098;-86
2022/03/20 00:31:09;;;;;;;37.13;10.53;;;2.80;99.90;1.70;103336;;;;572874;246;24093;-84
2022/03/20 00:33:37;;;;;;;39.27;10.17;;;2.80;99.90;1.80;103325;;;;562541;251;24091;-85
2022/03/20 00:36:05;;;;;;;41.17;11.10;;;2.80;99.90;1.70;103321;;;;572629;246;24127;-86
2022/03/20 00:38:33;;;;;;;33.13;10.70;;;2.80;99.90;1.70;103326;;;;572725;246;24177;-86
2022/03/20 00:41:01;;;;;;;30.90;12.33;;;2.80;99.90;1.70;103325;;;;561948;251;24138;-87
2022/03/20 00:43:29;;;;;;;31.50;10.20;;;2.70;99.90;1.70;103323;;;;572324;246;24098;-86
2022/03/20 00:45:58;;;;;;;24.93;9.00;;;2.70;99.90;1.70;103320;;;;572618;246;24094;-86
2022/03/20 00:48:26;;;;;;;43.07;11.03;;;2.70;99.90;1.70;103318;;;;567196;251;25164;-87
2022/03/20 00:50:55;;;;;;;45.17;11.23;;;2.70;99.90;1.60;103316;;;;572002;246;24130;-86
2022/03/20 00:53:22;;;;;;;24.83;11.17;;;2.70;99.90;1.60;103323;;;;572458;246;24110;-86
2022/03/20 00:55:50;;;;;;;30.70;12.67;;;2.70;99.90;1.60;103317;;;;572583;246;24090;-87
2022/03/20 00:58:20;;;;;;;37.93;10.90;;;2.60;99.90;1.60;103316;;;;562046;251;24146;-87
2022/03/20 01:00:48;;;;;;;29.07;12.70;;;2.60;99.90;1.60;103326;;;;572495;246;24088;-86
2022/03/20 01:03:16;;;;;;;33.73;12.37;;;2.60;99.90;1.60;103310;;;;572594;246;24148;-85
2022/03/20 01:05:44;;;;;;;87.60;20.92;;;2.70;99.90;1.60;103314;;;;557147;251;35304;-85
2022/03/20 01:08:11;;;;;;;39.70;14.43;;;2.70;99.90;1.60;103317;;;;572171;247;24110;-84
2022/03/20 01:10:40;;;;;;;32.33;13.43;;;2.70;99.90;1.60;103301;;;;572369;247;24118;-85
2022/03/20 01:13:07;;;;;;;29.03;12.87;;;2.70;99.90;1.70;103315;;;;561698;251;24126;-84
2022/03/20 01:15:36;;;;;;;28.67;13.03;;;2.70;99.90;1.70;103306;;;;572305;247;24119;-84
2022/03/20 01:18:04;;;;;;;41.00;13.17;;;2.70;99.90;1.70;103308;;;;572430;247;24138;-84
2022/03/20 01:20:32;;;;;;;34.67;14.17;;;2.70;99.90;1.70;103307;;;;561810;251;24122;-86
2022/03/20 01:23:00;;;;;;;31.17;12.17;;;2.70;99.90;1.70;103321;;;;572295;247;24161;-86
2022/03/20 01:25:30;;;;;;;27.37;12.03;;;2.70;99.90;1.70;103304;;;;572427;247;24107;-83
2022/03/20 01:27:58;;;;;;;37.93;13.53;;;2.80;99.90;1.60;103304;;;;562148;251;24143;-87
2022/03/20 01:30:23;;;;;;;28.30;13.77;;;2.70;99.90;1.60;103305;;;;569964;250;24158;-85
2022/03/20 01:32:54;;;;;;;39.50;13.87;;;2.70;99.90;1.60;103297;;;;571990;247;24144;-84
2022/03/20 01:35:19;;;;;;;37.10;13.80;;;2.70;99.90;1.60;103301;;;;584557;242;24101;-84
2022/03/20 01:37:51;;;;;;;36.83;12.40;;;2.60;99.90;1.60;103296;;;;584163;242;24100;-85
2022/03/20 01:40:19;;;;;;;36.23;15.07;;;2.60;99.90;1.60;103299;;;;593051;241;24101;-84
2022/03/20 01:42:47;;;;;;;37.67;14.13;;;2.60;99.90;1.60;103291;;;;585309;241;24068;-84
2022/03/20 01:45:15;;;;;;;35.30;14.40;;;2.60;99.90;1.60;103298;;;;585153;241;24079;-85
2022/03/20 01:47:47;;;;;;;37.43;16.53;;;2.60;99.90;1.50;103302;;;;593766;239;24115;-86
2022/03/20 01:50:14;;;;;;;37.90;14.07;;;2.50;99.90;1.50;103299;;;;584667;241;24080;-85
2022/03/20 01:52:39;;;;;;;35.93;15.23;;;2.60;99.90;1.60;103293;;;;593478;241;24067;-86
2022/03/20 01:55:09;;;;;;;39.87;15.60;;;2.60;99.90;1.60;103295;;;;584927;241;24102;-85
2022/03/20 01:57:37;;;;;;;46.17;16.20;;;2.60;99.90;1.60;103298;;;;584911;241;24041;-85
2022/03/20 02:00:08;;;;;;;32.03;15.33;;;2.60;99.90;1.50;103297;;;;594080;241;24112;-87
2022/03/20 02:02:39;;;;;;;37.53;16.47;;;2.60;99.90;1.50;103286;;;;593928;241;24077;-87
2022/03/20 02:05:05;;;;;;;79.57;25.20;;;2.60;99.90;1.50;103292;;;;579568;241;35159;-87
2022/03/20 02:07:34;;;;;;;76.83;28.30;;;2.50;99.90;1.50;103287;;;;584494;241;24091;-85
2022/03/20 02:10:01;;;;;;;42.77;17.17;;;2.50;99.90;1.50;103289;;;;584587;241;24161;-84
2022/03/20 02:12:31;;;;;;;46.87;16.23;;;2.50;99.90;1.50;103289;;;;584616;241;24066;-85
2022/03/20 02:14:56;;;;;;;29.83;15.20;;;2.60;99.90;1.50;103291;;;;593879;241;24101;-85
2022/03/20 02:17:27;;;;;;;37.63;16.63;;;2.50;99.90;1.40;103293;;;;593855;241;24058;-85
2022/03/20 02:19:52;;;;;;;37.30;16.30;;;2.50;99.90;1.40;103287;;;;584398;242;24052;-85
2022/03/20 02:22:24;;;;;;;40.47;16.63;;;2.50;99.90;1.40;103285;;;;584345;242;24099;-85
2022/03/20 02:24:51;;;;;;;38.10;16.27;;;2.50;99.90;1.40;103277;;;;584199;242;24111;-85
2022/03/20 02:27:23;;;;;;;37.30;16.40;;;2.50;99.90;1.40;103276;;;;584263;242;24081;-85
2022/03/20 02:29:57;;;;;;;40.70;15.70;;;2.50;99.90;1.40;103272;;;;593635;241;24118;-85
2022/03/20 02:32:31;;;;;;;39.03;17.30;;;2.50;99.90;1.40;103277;;;;593158;241;24113;-86
2022/03/20 02:34:56;;;;;;;37.43;16.37;;;2.50;99.90;1.40;103270;;;;583924;242;24090;-85
2022/03/20 02:37:24;;;;;;;50.43;16.57;;;2.50;99.90;1.40;103270;;;;592844;240;24078;-85
2022/03/20 02:39:52;;;;;;;43.83;16.50;;;2.50;99.90;1.40;103262;;;;593339;242;24057;-86
2022/03/20 02:42:23;;;;;;;38.60;16.77;;;2.50;99.90;1.40;103265;;;;593108;241;24079;-86
2022/03/20 02:44:50;;;;;;;40.60;17.00;;;2.40;99.90;1.40;103278;;;;583364;242;24065;-86
2022/03/20 02:47:20;;;;;;;37.93;17.97;;;2.40;99.90;1.40;103269;;;;584130;242;24054;-85
2022/03/20 02:49:46;;;;;;;34.50;16.30;;;2.40;99.90;1.30;103268;;;;583998;242;24078;-86
2022/03/20 02:52:14;;;;;;;41.07;16.07;;;2.40;99.90;1.30;103264;;;;584342;242;24072;-86
2022/03/20 02:54:43;;;;;;;41.47;17.93;;;2.30;99.90;1.30;103265;;;;585069;237;24055;-77
2022/03/20 02:57:11;;;;;;;83.87;26.48;;;2.30;99.90;1.30;103262;;;;579699;245;35358;-81
2022/03/20 02:59:39;;;;;;;101.23;37.73;;;2.30;99.90;1.30;103266;;;;579061;245;24101;-79
2022/03/20 03:02:09;;;;;;;82.60;30.97;;;2.30;99.90;1.30;103266;;;;578815;245;24083;-78
2022/03/20 03:04:37;;;;;;;50.73;21.13;;;2.30;99.90;1.30;103266;;;;577999;244;24081;-78
2022/03/20 03:07:02;;;;;;;49.93;20.03;;;2.30;99.90;1.20;103262;;;;574862;245;24159;-79
2022/03/20 03:12:17;;;;;;;38.50;17.87;;;2.30;99.90;1.20;103267;;;;577739;245;24128;-79
2022/03/20 03:17:34;;;;;;;46.77;18.43;;;2.30;99.90;1.20;103266;;;;577392;245;24049;-77
2022/03/20 03:19:59;;;;;;;38.43;17.63;;;2.30;99.90;1.20;103266;;;;577767;244;24059;-78
2022/03/20 03:22:27;;;;;;;46.53;18.87;;;2.20;99.90;1.20;103260;;;;577402;245;24210;-79
2022/03/20 03:24:58;;;;;;;42.10;18.43;;;2.20;99.90;1.10;103263;;;;581064;245;24096;-78
2022/03/20 03:27:23;;;;;;;39.70;18.50;;;2.20;99.90;1.10;103261;;;;577329;244;24127;-79
2022/03/20 03:29:51;;;;;;;47.73;17.80;;;2.20;99.90;1.10;103261;;;;574520;245;24055;-79
2022/03/20 03:32:19;;;;;;;40.23;17.47;;;2.20;99.90;1.10;103258;;;;574446;245;24183;-78
2022/03/20 03:37:36;;;;;;;46.73;17.93;;;2.10;99.90;1.10;103263;;;;581665;241;24100;-78
2022/03/20 03:40:04;;;;;;;43.10;17.03;;;2.10;99.90;1.10;103257;;;;576539;245;24138;-78
2022/03/20 03:42:32;;;;;;;43.50;18.90;;;2.10;99.90;1.00;103261;;;;576778;245;25137;-78
2022/03/20 03:45:01;;;;;;;41.90;16.37;;;2.10;99.90;1.10;103272;;;;573951;245;24173;-79
2022/03/20 03:47:28;;;;;;;41.90;18.37;;;2.10;99.90;1.00;103263;;;;584226;238;24025;-76
2022/03/20 03:49:55;;;;;;;40.00;18.47;;;2.10;99.90;1.00;103257;;;;593688;238;24101;-79
2022/03/20 03:52:23;;;;;;;56.90;18.07;;;2.00;99.90;0.90;103254;;;;603970;238;24051;-78
2022/03/20 03:54:51;;;;;;;40.73;18.00;;;2.00;99.90;0.80;103256;;;;594376;238;24034;-79
2022/03/20 03:57:19;;;;;;;46.83;16.40;;;1.90;99.90;0.80;103253;;;;593638;238;24030;-81
2022/03/20 03:59:50;;;;;;;44.07;18.37;;;1.80;99.90;0.70;103252;;;;593896;238;24138;-79
2022/03/20 04:02:15;;;;;;;45.10;17.83;;;1.80;99.90;0.60;103253;;;;593759;238;24081;-79
2022/03/20 04:04:43;;;;;;;56.43;20.60;;;1.70;99.90;0.60;103250;;;;594199;236;24081;-80
2022/03/20 04:07:11;;;;;;;64.10;27.03;;;1.60;99.90;0.60;103257;;;;604854;237;24055;-79
2022/03/20 04:09:39;;;;;;;77.57;27.53;;;1.60;99.90;0.50;103257;;;;595308;238;24169;-78
2022/03/20 04:12:10;;;;;;;83.93;28.90;;;1.60;99.90;0.50;103250;;;;595196;238;24159;-80
2022/03/20 04:14:34;;;;;;;73.87;29.77;;;1.60;99.90;0.50;103259;;;;600499;238;24045;-79
2022/03/20 04:17:05;;;;;;;89.50;33.13;;;1.60;99.90;0.50;103257;;;;594846;238;24031;-78
2022/03/20 04:19:34;;;;;;;102.13;30.73;;;1.60;99.90;0.50;103253;;;;594754;238;24045;-77
2022/03/20 04:21:58;;;;;;;84.77;29.43;;;1.50;99.90;0.40;103260;;;;594890;237;24069;-82
2022/03/20 04:24:26;;;;;;;148.77;33.00;;;1.50;99.90;0.40;103262;;;;594967;238;24088;-78
2022/03/20 04:26:55;;;;;;;93.07;29.20;;;1.50;99.90;0.40;103261;;;;594817;238;24063;-83
2022/03/20 04:29:23;;;;;;;162.87;31.70;;;1.50;99.90;0.40;103261;;;;595016;238;24111;-78
2022/03/20 04:31:54;;;;;;;133.75;28.20;;;1.50;99.90;0.30;103256;;;;589482;238;35038;-77
2022/03/20 04:34:20;;;;;;;41.33;17.77;;;1.40;99.90;0.20;103259;;;;603989;234;24041;-79
2022/03/20 04:36:47;;;;;;;44.03;17.30;;;1.30;99.90;0.20;103260;;;;594167;238;24033;-78
2022/03/20 04:39:14;;;;;;;44.67;20.13;;;1.30;99.90;0.20;103267;;;;594292;238;24064;-78
2022/03/20 04:41:45;;;;;;;64.23;27.20;;;1.30;99.90;0.20;103259;;;;593910;238;24040;-78
2022/03/20 04:44:12;;;;;;;119.60;31.30;;;1.30;99.90;0.20;103258;;;;593847;238;24041;-79
2022/03/20 04:46:45;;;;;;;118.07;31.07;;;1.30;99.90;0.20;103258;;;;593977;238;24045;-78
2022/03/20 04:58:29;;;;;;;192.40;33.30;;;1.30;99.90;0.20;103262;;;;601653;238;24021;-79
2022/03/20 05:00:08;;;;;;;122.03;30.57;;;1.20;99.90;0.10;103264;;;;601309;238;24034;-78
2022/03/20 05:02:36;;;;;;;159.13;34.83;;;1.20;99.90;0.10;103261;;;;596508;238;24167;-77
2022/03/20 05:05:04;;;;;;;259.60;38.53;;;1.20;99.90;0.10;103257;;;;594203;238;24049;-78
2022/03/20 05:07:33;;;;;;;147.90;34.03;;;1.20;99.90;0.10;103254;;;;593879;238;24024;-82
2022/03/20 05:15:36;;;;;;;277.67;40.00;;;1.20;99.90;0.20;103275;;;;601088;238;24058;-77
2022/03/20 05:18:01;;;;;;;272.97;39.57;;;1.20;99.90;0.10;103269;;;;595463;237;25136;-81
2022/03/20 05:20:33;;;;;;;316.57;40.33;;;1.20;99.90;0.10;103278;;;;595224;237;24059;-80
2022/03/20 05:22:57;;;;;;;147.83;34.17;;;1.20;99.90;0.10;103286;;;;601292;238;24065;-78
2022/03/20 05:25:25;;;;;;;153.50;33.77;;;1.20;99.90;0.10;103278;;;;595477;238;24093;-78
2022/03/20 05:27:53;;;;;;;172.00;35.03;;;1.10;99.90;0.10;103278;;;;594314;238;24053;-78
2022/03/20 05:30:24;;;;;;;169.67;38.27;;;1.20;99.90;0.20;103293;;;;594698;238;24100;-79
2022/03/20 05:32:52;;;;;;;212.57;38.93;;;1.20;99.90;0.30;103282;;;;594670;238;24104;-80
2022/03/20 05:35:17;;;;;;;125.60;39.30;;;1.40;99.90;0.30;103289;;;;603623;238;24143;-77
2022/03/20 05:37:48;;;;;;;130.33;37.87;;;1.40;99.90;0.40;103282;;;;594222;238;24078;-80
2022/03/20 05:40:17;;;;;;;128.93;35.93;;;1.60;99.90;0.50;103282;;;;593956;238;24030;-77
2022/03/20 05:42:45;;;;;;;87.67;31.97;;;1.50;99.90;0.60;103288;;;;603035;238;24078;-79
2022/03/20 05:45:13;;;;;;;98.40;34.23;;;1.70;99.90;0.70;103294;;;;593887;238;24116;-78
2022/03/20 05:47:41;;;;;;;65.00;22.73;;;1.90;99.90;0.80;103287;;;;594436;238;24018;-78
2022/03/20 05:50:10;;;;;;;63.27;24.33;;;2.00;99.90;0.90;103300;;;;594065;238;24039;-78
2022/03/20 05:52:38;;;;;;;64.80;23.63;;;1.90;99.90;1.00;103294;;;;599905;238;24060;-78
2022/03/20 05:55:06;;;;;;;58.43;24.23;;;2.00;99.90;1.00;103296;;;;593731;238;24036;-78
2022/03/20 06:00:26;;;;;;;64.23;25.80;;;2.30;99.90;1.20;103317;;;;601183;238;24079;-78
2022/03/20 06:02:54;;;;;;;66.63;23.60;;;2.20;99.90;1.20;103312;;;;594266;238;24014;-78
2022/03/20 06:05:23;;;;;;;67.30;24.17;;;2.30;99.90;1.30;103315;;;;594156;238;24042;-78
2022/03/20 06:07:52;;;;;;;73.90;24.20;;;2.40;99.90;1.40;103318;;;;594237;238;24119;-78
2022/03/20 06:10:18;;;;;;;133.87;39.55;;;2.40;99.90;1.50;103315;;;;589029;238;45832;-78
2022/03/20 06:12:46;;;;;;;84.70;27.87;;;2.60;99.90;1.60;103322;;;;594069;238;24077;-78
2022/03/20 06:15:14;;;;;;;120.47;37.65;;;2.60;99.90;1.60;103322;;;;588948;238;34930;-79
2022/03/20 06:17:44;;;;;;;114.57;42.88;;;2.70;99.90;1.70;103328;;;;588910;238;35039;-77
2022/03/20 06:20:10;;;;;;;86.07;28.80;;;2.80;99.90;1.70;103325;;;;601027;235;24024;-79
2022/03/20 06:22:41;;;;;;;59.33;25.43;;;2.90;99.90;1.70;103318;;;;594262;238;24038;-78
2022/03/20 06:25:09;;;;;;;48.17;21.97;;;2.90;99.90;1.80;103323;;;;594069;238;24007;-79
2022/03/20 06:27:45;;;;;;;60.10;23.37;;;2.90;99.90;1.90;103335;;;;593899;238;24109;-79
2022/03/20 06:30:13;;;;;;;44.43;20.60;;;3.00;99.90;2.10;103324;;;;595823;237;24014;-78
2022/03/20 06:32:44;;;;;;;67.00;25.77;;;3.10;99.90;2.40;103336;;;;595287;238;24020;-79
2022/03/20 06:35:12;;;;;;;59.60;22.30;;;3.40;99.90;2.60;103333;;;;604474;238;24042;-79
2022/03/20 06:37:39;;;;;;;53.03;23.57;;;3.60;99.90;2.80;103335;;;;594881;238;24093;-79
2022/03/20 06:40:10;;;;;;;55.77;25.00;;;3.80;99.90;2.90;103338;;;;595507;238;24035;-79
2022/03/20 06:42:38;;;;;;;56.30;23.30;;;4.00;99.90;3.10;103348;;;;594678;238;24056;-77
2022/03/20 06:45:03;;;;;;;55.90;24.03;;;4.20;99.90;3.30;103346;;;;595201;238;24107;-77
2022/03/20 06:47:34;;;;;;;54.50;23.67;;;4.30;99.90;3.50;103350;;;;594903;238;24016;-78
2022/03/20 06:50:02;;;;;;;53.63;23.70;;;4.60;99.90;3.80;103342;;;;594576;238;24085;-80
2022/03/20 06:52:31;;;;;;;53.30;22.17;;;5.10;99.90;4.10;103340;;;;594216;238;24028;-78
2022/03/20 06:54:58;;;;;;;51.13;21.37;;;5.10;99.90;4.40;103349;;;;587343;242;24056;-78
2022/03/20 06:57:26;;;;;;;49.10;21.93;;;5.40;99.90;5.00;103346;;;;574442;245;24145;-80
2022/03/20 06:59:54;;;;;;;41.93;21.90;;;5.90;99.90;6.00;103347;;;;577072;245;24166;-78
2022/03/20 07:02:26;;;;;;;45.47;21.80;;;6.70;99.90;7.70;103356;;;;577259;237;24061;-80
2022/03/20 07:04:53;;;;;;;45.93;22.37;;;8.20;99.90;9.70;103371;;;;603348;237;24076;-77
2022/03/20 07:07:19;;;;;;;40.27;22.63;;;12.00;99.90;11.50;103369;;;;596274;237;24049;-77
2022/03/20 07:09:47;;;;;;;38.40;23.40;;;13.00;99.90;12.20;103375;;;;596429;237;24033;-79
2022/03/20 07:12:16;;;;;;;40.50;24.53;;;13.00;99.90;11.80;103371;;;;606206;237;24087;-78
2022/03/20 07:14:45;;;;;;;42.83;24.87;;;12.90;99.90;11.60;103370;;;;586536;241;24071;-79
2022/03/20 07:17:16;;;;;;;41.00;25.43;;;12.70;99.90;11.60;103377;;;;580653;242;24029;-78
2022/03/20 07:19:45;;;;;;;40.60;25.73;;;12.70;99.90;11.50;103369;;;;580778;241;24085;-78
2022/03/20 07:22:09;;;;;;;37.97;22.93;;;12.70;99.90;11.30;103381;;;;585598;241;24032;-77
2022/03/20 07:24:41;;;;;;;44.43;25.93;;;12.50;99.90;11.10;103375;;;;585428;241;24046;-78
2022/03/20 07:29:51;;;;;;;45.03;26.57;;;12.30;99.90;13.20;103386;;;;577936;242;24096;-79
2022/03/20 07:32:22;;;;;;;35.53;24.13;;;13.60;99.90;15.60;103391;;;;582880;242;24103;-82
2022/03/20 07:34:50;;;;;;;37.40;25.60;;;15.80;95.70;18.00;103399;;;;583755;241;24050;-81
2022/03/20 07:37:18;;;;;;;38.07;27.40;;;18.20;86.70;20.00;103402;;;;576656;245;24127;-82
2022/03/20 07:39:46;;;;;;;40.53;28.10;;;20.30;72.00;21.50;103417;;;;564256;253;24120;-81
2022/03/20 07:42:16;;;;;;;37.80;29.20;;;22.00;60.90;22.40;103415;;;;578436;243;24117;-81
2022/03/20 07:44:45;;;;;;;34.00;27.43;;;23.10;55.20;23.30;103416;;;;575138;246;24097;-78
2022/03/20 07:47:25;;;;;;;36.87;30.80;;;24.10;51.70;23.90;103416;;;;575279;246;24102;-80
2022/03/20 07:49:53;;;;;;;37.23;30.47;;;24.70;48.00;24.30;103422;;;;578108;243;23088;-86
2022/03/20 07:52:22;;;;;;;36.47;31.17;;;25.10;46.00;24.30;103420;;;;582232;243;23086;-80
2022/03/20 07:54:46;;;;;;;39.83;32.97;;;25.30;46.70;25.00;103418;;;;581880;243;23117;-79
2022/03/20 07:57:14;;;;;;;36.63;32.57;;;25.80;45.60;25.60;103427;;;;581704;243;24090;-79
2022/03/20 07:59:44;;;;;;;38.47;33.23;;;26.40;44.40;25.90;103433;;;;590674;243;23062;-78
2022/03/20 08:02:10;;;;;;;37.47;31.40;;;26.80;43.00;26.00;103431;;;;582040;243;23063;-78
2022/03/20 08:04:41;;;;;;;38.60;33.43;;;27.00;42.70;26.50;103430;;;;581588;243;23088;-82
2022/03/20 08:07:06;;;;;;;33.87;30.27;;;27.40;42.30;27.20;103444;;;;582422;243;23040;-78
2022/03/20 08:09:33;;;;;;;35.60;31.17;;;28.00;41.50;27.90;103448;;;;582360;243;23056;-78
2022/03/20 08:12:01;;;;;;;34.93;31.20;;;28.60;40.40;28.20;103450;;;;575906;246;24163;-79
2022/03/20 08:14:29;;;;;;;34.93;31.07;;;29.00;38.90;28.20;103452;;;;575651;244;24153;-79
2022/03/20 08:16:58;;;;;;;36.97;31.80;;;29.30;39.50;28.30;103450;;;;575793;245;24068;-78
2022/03/20 08:19:27;;;;;;;36.13;32.53;;;29.80;38.70;29.00;103451;;;;565067;250;23135;-78
2022/03/20 08:21:56;;;;;;;35.28;31.58;;;29.80;38.60;29.50;103456;;;;561886;251;23105;-79
2022/03/20 08:24:26;;;;;;;35.80;31.95;;;30.40;36.40;29.10;103459;;;;573853;245;23079;-80
2022/03/20 08:26:54;;;;;;;35.30;30.85;;;30.50;36.90;29.40;103459;;;;580429;245;23098;-78
2022/03/20 08:29:20;;;;;;;36.45;32.67;;;30.90;36.30;29.80;103462;;;;575247;245;24085;-77
2022/03/20 08:31:48;;;;;;;37.22;33.47;;;30.90;36.30;30.40;103461;;;;575328;245;23078;-78
2022/03/20 08:34:16;;;;;;;33.70;30.27;;;31.40;35.80;30.30;103466;;;;580884;245;23072;-79
2022/03/20 08:36:47;;;;;;;33.42;29.98;;;31.60;34.40;29.80;103460;;;;584538;240;23136;-80
2022/03/20 08:39:12;;;;;;;33.10;29.60;;;31.20;34.80;30.00;103468;;;;584325;245;23204;-78
2022/03/20 08:41:43;;;;;;;35.00;29.73;;;31.20;34.90;30.20;103464;;;;584705;241;23059;-80
2022/03/20 08:44:08;;;;;;;32.58;29.17;;;31.40;34.70;30.50;103464;;;;584324;246;23134;-78
2022/03/20 08:46:39;;;;;;;29.30;26.40;;;31.60;35.00;30.70;103465;;;;571570;248;23243;-78
2022/03/20 08:49:09;;;;;;;32.10;28.85;;;31.90;33.00;30.60;103468;;;;584760;241;23154;-79
2022/03/20 08:51:40;;;;;;;32.85;29.55;;;31.90;32.90;30.50;103475;;;;584746;244;25200;-77
2022/03/20 08:54:09;;;;;;;31.42;28.42;;;31.90;33.90;30.50;103474;;;;587350;241;24133;-78
2022/03/20 08:56:33;;;;;;;30.80;27.70;;;31.90;33.10;30.40;103476;;;;588006;239;23075;-79
2022/03/20 08:59:01;;;;;;;30.70;27.70;;;31.90;33.00;29.60;103474;;;;585585;241;23059;-78
2022/03/20 09:01:29;;;;;;;29.17;26.48;;;31.60;33.00;29.80;103468;;;;587795;241;23956;-78
2022/03/20 09:03:56;;;;;;;32.25;28.10;;;31.50;33.00;30.10;103464;;;;593660;239;23934;-78
2022/03/20 09:06:24;;;;;;;27.42;24.70;;;31.60;32.30;30.00;103468;;;;587365;241;22991;-82
2022/03/20 09:08:53;;;;;;;27.70;24.92;;;31.70;31.80;29.70;103475;;;;593362;241;23985;-82
2022/03/20 09:11:21;;;;;;;28.08;25.02;;;31.50;31.50;29.30;103470;;;;586728;241;22972;-77
2022/03/20 09:13:48;;;;;;;26.85;24.12;;;31.20;31.60;29.00;103463;;;;596091;238;22996;-82
2022/03/20 09:19:07;;;;;;;24.27;21.52;;;30.70;30.80;28.10;103452;;;;586520;241;22989;-80
2022/03/20 09:21:36;;;;;;;27.37;24.58;;;30.20;31.30;28.40;103461;;;;593008;237;24044;-78
2022/03/20 09:24:00;;;;;;;28.23;25.25;;;30.20;31.40;28.60;103457;;;;586980;241;22951;-80
2022/03/20 09:26:31;;;;;;;25.15;22.45;;;30.30;32.00;28.90;103464;;;;585935;241;22999;-79
2022/03/20 09:28:56;;;;;;;27.98;25.08;;;30.60;31.60;29.00;103463;;;;586704;241;24011;-78
2022/03/20 09:31:31;;;;;;;27.58;24.45;;;30.70;31.50;28.80;103460;;;;588737;241;23063;-77
2022/03/20 09:33:52;;;;;;;26.65;23.58;;;30.70;30.80;28.30;103456;;;;585880;241;23103;-76
2022/03/20 09:36:20;;;;;;;27.90;24.20;;;30.30;31.20;27.60;103446;;;;586587;241;23118;-76
2022/03/20 09:38:48;;;;;;;25.77;22.13;;;29.80;31.60;26.60;103449;;;;586153;241;23068;-78
2022/03/20 09:41:19;;;;;;;26.13;22.93;;;28.90;31.30;24.40;103451;;;;585892;241;23081;-76
2022/03/20 09:43:44;;;;;;;27.27;24.37;;;27.30;32.60;22.80;103438;;;;585716;241;23086;-75
2022/03/20 09:46:12;;;;;;;28.10;23.40;;;25.50;35.10;22.50;103448;;;;586289;241;24145;-77
2022/03/20 09:48:43;;;;;;;24.97;22.30;;;24.70;37.60;22.50;103439;;;;586358;241;24105;-76
2022/03/20 09:51:09;;;;;;;27.80;23.13;;;24.50;36.30;22.50;103442;;;;595265;237;23081;-75
2022/03/20 09:53:36;;;;;;;25.77;21.27;;;24.50;36.30;22.80;103436;;;;586465;241;24128;-75
2022/03/20 09:56:07;;;;;;;27.27;21.13;;;24.70;37.00;23.70;103444;;;;586103;241;24041;-76
2022/03/20 09:58:34;;;;;;;22.23;19.43;;;25.30;36.40;23.40;103442;;;;585885;241;23116;-76
2022/03/20 10:01:01;;;;;;;21.07;17.73;;;25.50;34.90;22.90;103442;;;;592589;241;24159;-77
2022/03/20 10:03:31;;;;;;;19.73;16.20;;;24.80;34.10;22.50;103436;;;;586759;241;24099;-76
2022/03/20 10:06:21;;;;;;;23.40;19.20;;;24.60;35.60;22.50;103441;;;;587410;241;23074;-77
2022/03/20 10:08:42;;;;;;;20.30;18.07;;;24.50;35.50;22.80;103434;;;;586051;241;24111;-79
2022/03/20 10:11:20;;;;;;;22.33;18.40;;;24.80;36.00;22.70;103435;;;;587120;241;24188;-77
2022/03/20 10:14:11;;;;;;;22.33;18.47;;;24.90;35.50;22.70;103434;;;;586673;241;23201;-79
2022/03/20 10:16:54;;;;;;;19.73;17.67;;;24.80;35.70;22.00;103426;;;;587430;245;24195;-77
2022/03/20 10:19:25;;;;;;;21.70;18.23;;;24.50;35.30;21.80;103435;;;;582783;241;24071;-75
2022/03/20 10:22:04;;;;;;;22.87;17.47;;;24.10;36.00;20.90;103432;;;;585783;241;24109;-77
2022/03/20 10:24:32;;;;;;;17.80;14.40;;;23.40;35.80;19.80;103423;;;;586151;241;24150;-77
2022/03/20 10:27:00;;;;;;;20.37;15.73;;;22.30;35.90;19.00;103427;;;;586126;241;24095;-79
2022/03/20 10:29:32;;;;;;;20.93;16.77;;;21.40;38.20;17.40;103418;;;;595884;241;24057;-79
2022/03/20 10:31:59;;;;;;;20.17;15.90;;;19.80;40.40;16.10;103415;;;;594711;237;24055;-81
2022/03/20 10:34:27;;;;;;;17.87;14.13;;;18.20;42.70;15.40;103403;;;;594720;237;24106;-83
2022/03/20 10:36:52;;;;;;;16.53;12.63;;;17.10;45.20;15.00;103393;;;;586284;241;24120;-81
2022/03/20 10:39:21;;;;;;;17.77;12.07;;;16.40;45.70;14.70;103392;;;;587127;237;24083;-80
2022/03/20 10:41:49;;;;;;;18.17;11.53;;;15.90;44.80;14.20;103399;;;;597500;237;24036;-78
2022/03/20 10:44:20;;;;;;;13.10;10.07;;;15.30;44.20;13.40;103381;;;;596989;237;24047;-80
2022/03/20 10:46:45;;;;;;;14.00;10.27;;;14.50;44.70;13.10;103386;;;;605996;233;24089;-82
2022/03/20 10:49:13;;;;;;;13.53;10.00;;;14.00;45.80;12.90;103380;;;;597663;237;24058;-82
2022/03/20 10:51:41;;;;;;;16.20;10.13;;;13.20;47.20;12.50;103380;;;;596304;237;24046;-79
2022/03/20 10:54:15;;;;;;;14.10;9.27;;;13.10;47.20;11.70;103368;;;;606724;233;24048;-79
2022/03/20 10:56:58;;;;;;;16.77;9.47;;;12.60;46.60;11.00;103365;;;;596924;237;24046;-81
2022/03/20 10:59:26;;;;;;;16.80;9.37;;;11.90;47.30;10.40;103360;;;;597151;237;24109;-81
2022/03/20 11:01:57;;;;;;;13.57;9.07;;;11.30;49.70;10.00;103355;;;;596853;237;24026;-80
2022/03/20 11:04:23;;;;;;;11.23;7.27;;;10.80;51.20;9.80;103350;;;;596842;237;24055;-79
2022/03/20 11:06:59;;;;;;;;;;;;;;;;;;;;;
2022/03/20 11:09:22;;;;;;;11.67;7.40;;;10.30;51.30;9.20;103349;;;;584270;239;24099;-76
2022/03/20 11:11:53;;;;;;;14.80;8.77;;;10.00;52.10;8.90;103332;;;;592134;238;24006;-78
2022/03/20 11:14:26;;;;;;;8.53;5.60;;;9.80;51.10;8.80;103334;;;;595270;236;24043;-75
2022/03/20 11:17:04;;;;;;;11.50;7.40;;;9.40;52.60;8.60;103327;;;;596248;237;24070;-77
2022/03/20 11:19:31;;;;;;;9.07;6.83;;;9.40;52.60;8.50;103316;;;;601431;237;24091;-77
2022/03/20 11:22:05;;;;;;;9.33;6.80;;;9.30;51.10;8.50;103307;;;;586812;241;24100;-78
2022/03/20 11:24:34;;;;;;;15.53;7.13;;;9.20;52.40;8.50;103313;;;;594749;241;24151;-80
2022/03/20 11:27:02;;;;;;;11.13;7.50;;;9.20;52.30;8.50;103304;;;;586113;241;24041;-77
2022/03/20 11:29:29;;;;;;;10.23;6.47;;;9.20;52.50;8.50;103309;;;;580430;246;24059;-81
2022/03/20 11:31:59;;;;;;;10.77;6.87;;;9.30;51.40;8.50;103297;;;;573671;246;24119;-78
2022/03/20 11:34:27;;;;;;;10.27;6.23;;;9.20;51.10;8.50;103295;;;;573559;247;24130;-78
2022/03/20 11:37:10;;;;;;;10.87;8.27;;;9.20;51.30;8.50;103296;;;;582457;245;24152;-80
2022/03/20 11:39:38;;;;;;;15.27;7.80;;;9.20;52.70;8.40;103290;;;;573467;247;24188;-78
2022/03/20 11:42:27;;;;;;;10.83;6.30;;;9.20;53.50;8.50;103295;;;;578669;247;24098;-79